Photometre #846[NE_1.6_Dp] Watnall_MO AOT

File : 20210608_846.hum

08/06/2021,04:54:37,TEMP=11.8,BA=5.56,STAT.A,ExtBa=13.10
08/06/2021,04:59:22,TEMP=12.2,BA=5.56,STAT.A,ExtBa=13.00
08/06/2021,05:05:52,TEMP=12.4,BA=5.28,STAT.A,ExtBa=12.90
08/06/2021,05:11:19,TEMP=12.7,BA=5.60,STAT.A,ExtBa=12.90
08/06/2021,05:19:00,TEMP=13.0,BA=5.60,STAT.A,ExtBa=12.90
08/06/2021,05:28:20,TEMP=13.4,BA=5.36,STAT.A,ExtBa=12.90
08/06/2021,05:39:23,TEMP=13.5,BA=5.32,STAT.D,ExtBa=13.00
08/06/2021,05:41:32,TEMP=14.0,BA=5.36,STAT.B,ExtBa=12.80
08/06/2021,05:45:21,TEMP=13.7,BA=5.36,STAT.A,ExtBa=12.90
08/06/2021,05:51:24,TEMP=13.6,BA=5.60,STAT.A,ExtBa=12.90
08/06/2021,05:58:09,TEMP=13.9,BA=5.60,STAT.A,ExtBa=12.90
08/06/2021,06:05:44,TEMP=14.2,BA=5.36,STAT.A,ExtBa=12.90
08/06/2021,06:14:22,TEMP=14.6,BA=5.64,STAT.C,ExtBa=12.90
08/06/2021,06:24:13,TEMP=15.1,BA=5.64,STAT.A,ExtBa=12.90
08/06/2021,06:35:38,TEMP=15.3,BA=5.64,STAT.A,ExtBa=12.90
08/06/2021,06:48:23,TEMP=15.4,BA=5.64,STAT.D,ExtBa=12.90
08/06/2021,06:50:24,TEMP=16.0,BA=5.44,STAT.A,ExtBa=12.90
08/06/2021,07:03:23,TEMP=16.0,BA=5.64,STAT.D,ExtBa=13.00
08/06/2021,07:05:24,TEMP=16.7,BA=5.64,STAT.A,ExtBa=12.90
08/06/2021,07:18:23,TEMP=16.7,BA=5.64,STAT.D,ExtBa=12.90
08/06/2021,07:24:50,TEMP=17.1,BA=5.40,STAT.B,ExtBa=12.90
08/06/2021,07:36:23,TEMP=17.6,BA=5.64,STAT.D,ExtBa=12.90
08/06/2021,07:48:23,TEMP=18.0,BA=5.64,STAT.D,ExtBa=12.90
08/06/2021,08:00:24,TEMP=18.1,BA=5.64,STAT.D,ExtBa=12.90
08/06/2021,08:05:09,TEMP=18.3,BA=5.64,STAT.B,ExtBa=12.90
08/06/2021,08:18:24,TEMP=18.4,BA=5.64,STAT.D,ExtBa=12.90
08/06/2021,08:20:23,TEMP=18.9,BA=5.48,STAT.D,ExtBa=12.90
08/06/2021,08:33:24,TEMP=19.3,BA=5.64,STAT.D,ExtBa=12.90
08/06/2021,08:35:24,TEMP=19.9,BA=5.64,STAT.D,ExtBa=12.90
08/06/2021,08:48:24,TEMP=19.9,BA=5.64,STAT.D,ExtBa=12.90
08/06/2021,08:50:23,TEMP=20.4,BA=5.52,STAT.D,ExtBa=12.90
08/06/2021,09:03:24,TEMP=20.2,BA=5.64,STAT.D,ExtBa=12.90
08/06/2021,09:05:25,TEMP=20.7,BA=5.64,STAT.F,ExtBa=12.90
08/06/2021,09:18:24,TEMP=20.3,BA=5.64,STAT.D,ExtBa=12.90
08/06/2021,09:20:24,TEMP=20.9,BA=5.52,STAT.D,ExtBa=12.90
08/06/2021,09:33:24,TEMP=20.9,BA=5.64,STAT.D,ExtBa=12.90
08/06/2021,09:35:24,TEMP=21.6,BA=5.64,STAT.D,ExtBa=12.90
08/06/2021,09:57:32,TEMP=21.4,BA=5.64,STAT.D,ExtBa=13.00
08/06/2021,10:04:20,TEMP=21.2,BA=5.64,STAT.F,ExtBa=13.00
08/06/2021,10:12:24,TEMP=21.4,BA=5.64,STAT.D,ExtBa=13.10
08/06/2021,10:19:18,TEMP=21.7,BA=5.64,STAT.D,ExtBa=13.20
08/06/2021,10:30:24,TEMP=21.9,BA=5.68,STAT.D,ExtBa=13.40
08/06/2021,10:34:18,TEMP=22.1,BA=5.68,STAT.D,ExtBa=13.40
08/06/2021,10:45:24,TEMP=22.4,BA=5.68,STAT.D,ExtBa=13.60
08/06/2021,10:49:18,TEMP=22.7,BA=5.68,STAT.D,ExtBa=13.60
08/06/2021,11:00:25,TEMP=22.6,BA=5.68,STAT.D,ExtBa=13.80
08/06/2021,11:04:20,TEMP=22.8,BA=5.68,STAT.F,ExtBa=13.80
08/06/2021,11:15:25,TEMP=22.7,BA=5.68,STAT.D,ExtBa=14.00
08/06/2021,11:19:19,TEMP=22.8,BA=5.68,STAT.D,ExtBa=14.00
08/06/2021,11:30:25,TEMP=23.3,BA=5.68,STAT.D,ExtBa=14.10
08/06/2021,11:34:19,TEMP=23.5,BA=5.68,STAT.D,ExtBa=14.10
08/06/2021,11:45:25,TEMP=23.6,BA=5.68,STAT.D,ExtBa=14.20
08/06/2021,11:49:19,TEMP=23.8,BA=5.68,STAT.D,ExtBa=14.20
08/06/2021,12:00:25,TEMP=23.8,BA=5.68,STAT.D,ExtBa=14.30
08/06/2021,12:04:20,TEMP=24.2,BA=5.68,STAT.F,ExtBa=14.30
08/06/2021,12:18:25,TEMP=24.6,BA=5.68,STAT.D,ExtBa=14.40
08/06/2021,12:20:28,TEMP=25.0,BA=5.60,STAT.D,ExtBa=14.20
08/06/2021,12:33:25,TEMP=24.2,BA=5.64,STAT.D,ExtBa=13.90
08/06/2021,12:35:54,TEMP=24.5,BA=5.64,STAT.D,ExtBa=13.80
08/06/2021,12:48:25,TEMP=24.2,BA=5.64,STAT.D,ExtBa=14.50
08/06/2021,12:50:25,TEMP=24.8,BA=5.64,STAT.D,ExtBa=14.40
08/06/2021,13:03:25,TEMP=24.9,BA=5.64,STAT.D,ExtBa=14.50
08/06/2021,13:05:33,TEMP=25.5,BA=5.64,STAT.F,ExtBa=14.50
08/06/2021,13:18:24,TEMP=25.3,BA=5.64,STAT.D,ExtBa=14.50
08/06/2021,13:20:24,TEMP=25.8,BA=5.60,STAT.D,ExtBa=14.40
08/06/2021,13:33:25,TEMP=25.1,BA=5.64,STAT.D,ExtBa=14.50
08/06/2021,13:35:24,TEMP=25.6,BA=5.64,STAT.D,ExtBa=14.40
08/06/2021,13:48:24,TEMP=25.3,BA=5.64,STAT.D,ExtBa=14.40
08/06/2021,13:50:25,TEMP=25.9,BA=5.52,STAT.D,ExtBa=14.30
08/06/2021,14:03:24,TEMP=25.5,BA=5.64,STAT.D,ExtBa=14.40
08/06/2021,14:05:26,TEMP=26.1,BA=5.64,STAT.F,ExtBa=14.40
08/06/2021,14:18:24,TEMP=25.6,BA=5.60,STAT.D,ExtBa=14.30
08/06/2021,14:20:24,TEMP=26.2,BA=5.52,STAT.D,ExtBa=14.30
08/06/2021,14:33:24,TEMP=25.7,BA=5.60,STAT.D,ExtBa=14.30
08/06/2021,14:35:17,TEMP=26.3,BA=5.60,STAT.D,ExtBa=14.20
08/06/2021,14:48:24,TEMP=25.7,BA=5.60,STAT.D,ExtBa=14.20
08/06/2021,14:50:26,TEMP=26.2,BA=5.48,STAT.D,ExtBa=14.20
08/06/2021,15:03:24,TEMP=25.9,BA=5.60,STAT.D,ExtBa=14.10
08/06/2021,15:05:25,TEMP=26.4,BA=5.60,STAT.F,ExtBa=14.10
08/06/2021,15:18:24,TEMP=25.7,BA=5.60,STAT.D,ExtBa=14.00
08/06/2021,15:20:25,TEMP=26.2,BA=5.48,STAT.D,ExtBa=14.00
08/06/2021,15:33:24,TEMP=25.8,BA=5.60,STAT.D,ExtBa=14.00
08/06/2021,15:35:24,TEMP=26.3,BA=5.60,STAT.D,ExtBa=14.00
08/06/2021,15:48:24,TEMP=25.6,BA=5.60,STAT.D,ExtBa=14.00
08/06/2021,15:50:28,TEMP=26.1,BA=5.48,STAT.D,ExtBa=13.90
08/06/2021,16:03:24,TEMP=25.8,BA=5.60,STAT.D,ExtBa=13.90
08/06/2021,16:05:25,TEMP=26.3,BA=5.60,STAT.B,ExtBa=14.00
08/06/2021,16:18:23,TEMP=25.8,BA=5.60,STAT.D,ExtBa=13.90
08/06/2021,16:30:23,TEMP=25.7,BA=5.60,STAT.D,ExtBa=13.90
08/06/2021,16:42:23,TEMP=25.3,BA=5.56,STAT.D,ExtBa=13.60
08/06/2021,16:44:25,TEMP=25.6,BA=5.56,STAT.B,ExtBa=13.50
08/06/2021,16:57:23,TEMP=24.5,BA=5.56,STAT.D,ExtBa=13.70
08/06/2021,17:03:30,TEMP=24.5,BA=5.56,STAT.A,ExtBa=13.70
08/06/2021,17:12:23,TEMP=24.3,BA=5.52,STAT.D,ExtBa=13.60
08/06/2021,17:19:35,TEMP=24.4,BA=5.52,STAT.A,ExtBa=13.50
08/06/2021,17:33:00,TEMP=24.5,BA=5.60,STAT.A,ExtBa=13.70
08/06/2021,17:44:25,TEMP=24.5,BA=5.60,STAT.A,ExtBa=13.60
08/06/2021,17:54:15,TEMP=24.3,BA=5.60,STAT.C,ExtBa=13.50
08/06/2021,18:02:52,TEMP=24.0,BA=5.60,STAT.A,ExtBa=13.40
08/06/2021,18:10:27,TEMP=23.8,BA=5.60,STAT.A,ExtBa=13.30
08/06/2021,18:17:12,TEMP=23.9,BA=5.60,STAT.A,ExtBa=13.20
08/06/2021,18:23:15,TEMP=23.6,BA=5.56,STAT.A,ExtBa=13.10
08/06/2021,18:28:43,TEMP=23.4,BA=5.56,STAT.B,ExtBa=13.10
08/06/2021,18:40:17,TEMP=23.2,BA=5.52,STAT.A,ExtBa=13.20
08/06/2021,18:49:38,TEMP=23.1,BA=5.52,STAT.A,ExtBa=13.20
08/06/2021,18:57:19,TEMP=22.9,BA=5.48,STAT.A,ExtBa=13.10
08/06/2021,19:03:46,TEMP=22.8,BA=5.56,STAT.A,ExtBa=13.10
08/06/2021,19:09:16,TEMP=22.5,BA=5.56,STAT.A,ExtBa=13.10
08/06/2021,19:14:01,TEMP=22.4,BA=5.44,STAT.A,ExtBa=13.10